Time;durP1;ratioP1;P1;durP2;ratioP2;P2;SDS_P1;SDS_P2;PMS_P1;PMS_P2;Temp;Humidity;BMP_temperature;BMP_pressure;BME280_temperature;BME280_humidity;BME280_pressure;Samples;Min_cycle;Max_cycle;Signal;HPM_P1;HPM_P2
2022/05/28 00:01:10;;;;;;;2.90;2.60;;;12.00;99.00;;;;;;5047264;28;20421;-61
2022/05/28 00:03:37;;;;;;;2.80;2.60;;;12.00;99.20;;;;;;5045430;28;20226;-60
2022/05/28 00:06:08;;;;;;;4.33;3.07;;;11.90;99.40;;;;;;5041375;28;20428;-60
2022/05/28 00:08:33;;;;;;;3.60;3.13;;;11.80;99.40;;;;;;5056486;28;20483;-60
2022/05/28 00:10:59;;;;;;;4.03;3.33;;;11.80;99.90;;;;;;5049004;28;20837;-60
2022/05/28 00:13:25;;;;;;;3.70;2.60;;;11.70;99.90;;;;;;5051337;28;20194;-59
2022/05/28 00:15:51;;;;;;;6.90;3.00;;;11.60;99.90;;;;;;5052171;28;20691;-60
2022/05/28 00:18:17;;;;;;;3.43;3.13;;;11.60;99.90;;;;;;5056368;28;20428;-60
2022/05/28 00:20:42;;;;;;;4.30;3.20;;;11.60;99.90;;;;;;5032075;28;20450;-59
2022/05/28 00:23:08;;;;;;;2.83;2.60;;;11.50;99.90;;;;;;5047555;28;20191;-61
2022/05/28 00:25:34;;;;;;;3.30;3.00;;;11.50;99.90;;;;;;5053529;28;20266;-60
2022/05/28 00:28:00;;;;;;;3.87;3.23;;;11.40;99.90;;;;;;5052019;28;21005;-60
2022/05/28 00:30:26;;;;;;;7.30;5.37;;;11.40;99.90;;;;;;5057509;28;20166;-60
2022/05/28 00:32:52;;;;;;;4.77;3.73;;;11.40;99.90;;;;;;5045279;28;20450;-60
2022/05/28 00:35:19;;;;;;;8.57;3.33;;;11.30;99.90;;;;;;5052363;28;20425;-59
2022/05/28 00:37:47;;;;;;;3.33;2.90;;;11.30;99.90;;;;;;5047489;28;20170;-60
2022/05/28 00:40:20;;;;;;;4.63;2.90;;;11.20;99.90;;;;;;5050305;28;20483;-59
2022/05/28 00:42:45;;;;;;;3.37;3.07;;;11.10;99.90;;;;;;5041715;28;20457;-60
2022/05/28 00:45:12;;;;;;;3.63;3.13;;;11.10;99.90;;;;;;5041469;28;20483;-60
2022/05/28 00:47:43;;;;;;;5.40;4.67;;;11.10;99.90;;;;;;5043930;28;20194;-60
2022/05/28 00:50:11;;;;;;;9.63;6.10;;;11.00;99.90;;;;;;5047278;28;20449;-60
2022/05/28 00:52:36;;;;;;;11.43;5.60;;;11.00;99.90;;;;;;5050044;28;20449;-60
2022/05/28 00:55:03;;;;;;;5.23;4.73;;;11.00;99.90;;;;;;5064414;28;20441;-60
2022/05/28 00:57:29;;;;;;;3.83;3.47;;;10.90;99.90;;;;;;5044576;28;20453;-59
2022/05/28 00:59:55;;;;;;;6.00;4.40;;;10.90;99.90;;;;;;5049683;28;20422;-60
2022/05/28 01:02:55;;;;;;;13.37;10.17;;;10.90;99.90;;;;;;5048777;28;20202;-60
2022/05/28 01:05:35;;;;;;;11.77;8.07;;;10.80;99.90;;;;;;5054090;28;20592;-60
2022/05/28 01:08:29;;;;;;;19.27;14.17;;;10.80;99.90;;;;;;5045215;28;20465;-60
2022/05/28 01:11:04;;;;;;;18.67;13.47;;;10.80;99.90;;;;;;5046891;28;20432;-60
2022/05/28 01:13:44;;;;;;;12.63;9.50;;;10.80;99.90;;;;;;5041015;28;20455;-60
2022/05/28 01:16:15;;;;;;;9.33;6.00;;;10.70;99.90;;;;;;5053643;28;20837;-60
2022/05/28 01:18:50;;;;;;;9.20;4.90;;;10.70;99.90;;;;;;5048417;28;20425;-60
2022/05/28 01:21:47;;;;;;;8.97;4.33;;;10.70;99.90;;;;;;5033127;28;20857;-60
2022/05/28 01:24:55;;;;;;;4.10;3.60;;;10.70;99.90;;;;;;5053546;28;20936;-60
2022/05/28 01:27:31;;;;;;;5.07;3.73;;;10.70;99.90;;;;;;5047607;28;21941;-60
2022/05/28 01:30:02;;;;;;;4.60;3.57;;;10.70;99.90;;;;;;5043641;28;20430;-60
2022/05/28 01:32:31;;;;;;;3.70;3.40;;;10.70;99.90;;;;;;5058775;28;20933;-60
2022/05/28 01:34:59;;;;;;;4.07;3.37;;;10.60;99.90;;;;;;5049166;28;20787;-60
2022/05/28 01:37:25;;;;;;;3.97;3.57;;;10.60;99.90;;;;;;5049027;28;20418;-60
2022/05/28 01:39:52;;;;;;;7.43;3.40;;;10.60;99.90;;;;;;5040773;28;20455;-60
2022/05/28 01:42:18;;;;;;;7.47;3.37;;;10.60;99.90;;;;;;5044494;28;20453;-60
2022/05/28 01:44:46;;;;;;;3.93;3.50;;;10.50;99.90;;;;;;5052535;28;20816;-60
2022/05/28 01:47:14;;;;;;;3.83;3.30;;;10.50;99.90;;;;;;5052354;28;20484;-60
2022/05/28 01:49:40;;;;;;;3.60;3.30;;;10.40;99.90;;;;;;5040627;28;20426;-59
2022/05/28 01:52:07;;;;;;;3.53;3.23;;;10.40;99.90;;;;;;5050367;28;20430;-59
2022/05/28 01:54:38;;;;;;;6.23;3.63;;;10.40;99.90;;;;;;5057369;28;20574;-59
2022/05/28 01:57:04;;;;;;;4.17;3.50;;;10.40;99.90;;;;;;5067850;28;20431;-60
2022/05/28 01:59:35;;;;;;;5.47;3.33;;;10.40;99.90;;;;;;5043903;28;20429;-60
2022/05/28 02:02:04;;;;;;;3.80;3.30;;;10.40;99.90;;;;;;5044676;28;20453;-60
2022/05/28 02:04:31;;;;;;;3.67;3.10;;;10.40;99.90;;;;;;5051117;28;20446;-60
2022/05/28 02:06:57;;;;;;;3.53;3.23;;;10.40;99.90;;;;;;5055599;28;20461;-59
2022/05/28 02:09:28;;;;;;;3.60;3.27;;;10.30;99.90;;;;;;5043108;28;20950;-59
2022/05/28 02:12:07;;;;;;;4.23;3.00;;;10.30;99.90;;;;;;5046809;28;20199;-60
2022/05/28 02:14:51;;;;;;;4.27;3.17;;;10.30;99.90;;;;;;5049769;28;20962;-61
2022/05/28 02:18:00;;;;;;;8.33;3.33;;;10.30;99.90;;;;;;5042209;28;20434;-60
2022/05/28 02:20:51;;;;;;;6.00;3.80;;;10.20;99.90;;;;;;5017697;28;20564;-60
2022/05/28 02:23:27;;;;;;;5.60;3.60;;;10.20;99.90;;;;;;5042937;28;20453;-60
2022/05/28 02:26:07;;;;;;;5.63;4.37;;;10.20;99.90;;;;;;5060855;28;20420;-60
2022/05/28 02:28:34;;;;;;;5.63;4.07;;;10.20;99.90;;;;;;5053947;28;21465;-60
2022/05/28 02:31:08;;;;;;;5.00;3.80;;;10.20;99.90;;;;;;5038271;28;20415;-60
2022/05/28 02:33:34;;;;;;;6.27;4.13;;;10.30;99.90;;;;;;5035649;28;20444;-60
2022/05/28 02:36:00;;;;;;;30.20;18.63;;;10.30;99.90;;;;;;5046092;28;20423;-59
2022/05/28 02:38:26;;;;;;;24.93;14.37;;;10.30;99.90;;;;;;5054322;28;20194;-60
2022/05/28 02:40:54;;;;;;;21.37;12.60;;;10.30;99.90;;;;;;5053077;28;20416;-60
2022/05/28 02:43:22;;;;;;;10.70;6.77;;;10.40;99.90;;;;;;5050115;28;20187;-60
2022/05/28 02:45:48;;;;;;;5.90;4.03;;;10.40;99.90;;;;;;5050231;28;20795;-59
2022/05/28 02:48:14;;;;;;;6.33;4.10;;;10.40;99.90;;;;;;5037332;28;20504;-59
2022/05/28 02:50:39;;;;;;;4.40;3.77;;;10.30;99.90;;;;;;5042956;28;20426;-60
2022/05/28 02:53:05;;;;;;;4.13;3.10;;;10.30;99.90;;;;;;5054860;28;20187;-59
2022/05/28 02:55:31;;;;;;;4.77;3.60;;;10.30;99.90;;;;;;5046104;28;20250;-61
2022/05/28 02:57:56;;;;;;;5.17;4.47;;;10.30;99.90;;;;;;5045467;28;20289;-60
2022/05/28 03:00:22;;;;;;;3.93;3.50;;;10.20;99.90;;;;;;5051391;28;20163;-60
2022/05/28 03:02:48;;;;;;;5.40;3.67;;;10.20;99.90;;;;;;5049215;28;20730;-59
2022/05/28 03:05:16;;;;;;;5.73;3.63;;;10.20;99.90;;;;;;5053973;28;20223;-59
2022/05/28 03:07:42;;;;;;;5.43;4.33;;;10.20;99.90;;;;;;5042243;28;21564;-60
2022/05/28 03:10:11;;;;;;;6.17;3.80;;;10.20;99.90;;;;;;5055673;28;20864;-60
2022/05/28 03:12:37;;;;;;;4.43;3.67;;;10.10;99.90;;;;;;5045122;28;20445;-60
2022/05/28 03:15:03;;;;;;;6.70;4.10;;;10.20;99.90;;;;;;5053397;28;20413;-59
2022/05/28 03:17:28;;;;;;;4.97;4.27;;;10.10;99.90;;;;;;5058273;28;20425;-60
2022/05/28 03:19:54;;;;;;;8.40;4.47;;;10.10;99.90;;;;;;5039447;28;20676;-60
2022/05/28 03:22:19;;;;;;;7.37;6.33;;;10.10;99.90;;;;;;5048575;28;20663;-59
2022/05/28 03:24:45;;;;;;;5.53;4.60;;;10.20;99.90;;;;;;5040901;28;20175;-60
2022/05/28 03:27:11;;;;;;;5.60;4.10;;;10.20;99.90;;;;;;5037110;28;20276;-60
2022/05/28 03:29:36;;;;;;;7.17;4.80;;;10.20;99.90;;;;;;5048284;28;20167;-60
2022/05/28 03:32:02;;;;;;;6.40;4.57;;;10.20;99.90;;;;;;5047377;28;20729;-60
2022/05/28 03:34:28;;;;;;;5.97;5.30;;;10.20;99.90;;;;;;5047264;28;20190;-60
2022/05/28 03:36:53;;;;;;;6.90;5.03;;;10.30;99.90;;;;;;5049637;28;20173;-60
2022/05/28 03:39:19;;;;;;;6.97;4.37;;;10.30;99.90;;;;;;5051758;28;20171;-59
2022/05/28 03:41:45;;;;;;;10.17;4.10;;;10.40;99.90;;;;;;5046207;28;20649;-60
2022/05/28 03:44:11;;;;;;;5.33;3.70;;;10.40;99.90;;;;;;5062945;28;20167;-60
2022/05/28 03:46:38;;;;;;;8.60;3.70;;;10.30;99.90;;;;;;5049056;28;20417;-60
2022/05/28 03:49:25;;;;;;;5.90;4.00;;;10.20;99.90;;;;;;5055976;28;20158;-59
2022/05/28 03:51:51;;;;;;;6.47;4.20;;;10.10;99.90;;;;;;5044409;28;20425;-59
2022/05/28 03:54:17;;;;;;;4.77;4.13;;;10.00;99.90;;;;;;5045112;28;20463;-59
2022/05/28 03:56:44;;;;;;;6.73;4.33;;;10.00;99.90;;;;;;5044622;28;20189;-60
2022/05/28 03:59:10;;;;;;;9.17;4.40;;;9.90;99.90;;;;;;5056954;28;20262;-59
2022/05/28 04:01:37;;;;;;;7.03;3.80;;;9.80;99.90;;;;;;5056769;28;20428;-59
2022/05/28 04:04:03;;;;;;;4.73;3.90;;;9.80;99.90;;;;;;5049399;28;20410;-58
2022/05/28 04:06:29;;;;;;;9.60;3.87;;;9.80;99.90;;;;;;5044832;28;20414;-59
2022/05/28 04:08:55;;;;;;;4.70;3.77;;;9.80;99.90;;;;;;5047789;28;20502;-59
2022/05/28 04:11:21;;;;;;;9.43;4.07;;;9.80;99.90;;;;;;5038138;28;20210;-59
2022/05/28 04:13:47;;;;;;;8.70;4.47;;;9.80;99.90;;;;;;5057416;28;20507;-59
2022/05/28 04:16:14;;;;;;;6.53;4.50;;;9.80;99.90;;;;;;5044845;28;20171;-59
2022/05/28 04:18:40;;;;;;;9.50;4.47;;;9.80;99.90;;;;;;5050846;28;20460;-59
2022/05/28 04:21:07;;;;;;;8.10;5.30;;;9.90;99.90;;;;;;5032294;28;20433;-59
2022/05/28 04:23:33;;;;;;;8.40;4.43;;;9.90;99.90;;;;;;5042879;28;20434;-60
2022/05/28 04:25:59;;;;;;;6.67;4.67;;;9.90;99.90;;;;;;5052853;28;20417;-59
2022/05/28 04:28:24;;;;;;;8.53;4.97;;;10.00;99.90;;;;;;5037487;28;20481;-59
2022/05/28 04:30:50;;;;;;;5.63;4.50;;;10.00;99.90;;;;;;5035715;28;20175;-60
2022/05/28 04:33:16;;;;;;;6.77;4.90;;;10.10;99.90;;;;;;5041099;28;20188;-60
2022/05/28 04:35:41;;;;;;;9.23;5.20;;;10.20;99.90;;;;;;5043587;28;20713;-60
2022/05/28 04:38:07;;;;;;;12.13;5.20;;;10.20;99.90;;;;;;5043579;28;20698;-60
2022/05/28 04:40:33;;;;;;;10.10;5.40;;;10.30;99.90;;;;;;5044241;28;20186;-59
2022/05/28 04:42:58;;;;;;;9.57;5.37;;;10.40;99.90;;;;;;5055507;28;20576;-59
2022/05/28 04:45:24;;;;;;;13.00;4.63;;;10.40;99.90;;;;;;5053517;28;20177;-60
2022/05/28 04:47:50;;;;;;;11.83;4.50;;;10.50;99.90;;;;;;5036309;28;20283;-59
2022/05/28 04:50:16;;;;;;;9.43;5.40;;;10.60;99.90;;;;;;5047037;28;20191;-60
2022/05/28 04:52:41;;;;;;;11.93;5.37;;;10.70;99.90;;;;;;5048107;28;20284;-59
2022/05/28 04:55:09;;;;;;;13.33;5.00;;;10.80;99.90;;;;;;5055204;28;20176;-59
2022/05/28 04:57:36;;;;;;;14.13;5.50;;;10.80;99.90;;;;;;5055349;28;20221;-59
2022/05/28 05:00:02;;;;;;;8.70;5.30;;;11.00;99.90;;;;;;5040183;28;20425;-59
2022/05/28 05:02:28;;;;;;;10.70;4.63;;;11.10;99.90;;;;;;5036391;28;20587;-59
2022/05/28 05:04:55;;;;;;;7.93;4.97;;;11.20;99.90;;;;;;5040422;28;20520;-59
2022/05/28 05:07:21;;;;;;;7.33;4.80;;;11.30;99.90;;;;;;5039643;28;20199;-59
2022/05/28 05:09:47;;;;;;;9.10;5.23;;;11.30;99.90;;;;;;5030659;28;20428;-59
2022/05/28 05:12:12;;;;;;;11.30;5.33;;;11.40;99.90;;;;;;5047010;28;20306;-60
2022/05/28 05:14:38;;;;;;;12.00;5.20;;;11.40;99.90;;;;;;5054795;28;20172;-59
2022/05/28 05:17:04;;;;;;;6.90;4.70;;;11.50;99.20;;;;;;5046691;28;21057;-59
2022/05/28 05:19:30;;;;;;;10.83;5.80;;;11.60;98.50;;;;;;5047057;28;20194;-59
2022/05/28 05:21:55;;;;;;;15.83;5.40;;;11.60;98.30;;;;;;5062179;28;20432;-59
2022/05/28 05:24:23;;;;;;;9.57;5.20;;;11.70;98.60;;;;;;5055779;28;20186;-59
2022/05/28 05:26:48;;;;;;;12.90;5.30;;;11.80;97.90;;;;;;5045686;28;20499;-60
2022/05/28 05:29:14;;;;;;;6.67;4.63;;;11.90;97.30;;;;;;5049957;28;20433;-58
2022/05/28 05:31:40;;;;;;;10.70;4.50;;;12.00;96.90;;;;;;5046744;28;20184;-59
2022/05/28 05:34:06;;;;;;;11.73;5.73;;;12.10;95.20;;;;;;5060048;28;20171;-59
2022/05/28 05:36:32;;;;;;;11.13;5.50;;;12.20;93.70;;;;;;5048958;28;20822;-60
2022/05/28 05:38:58;;;;;;;17.33;6.40;;;12.20;91.80;;;;;;5054867;28;20431;-59
2022/05/28 05:41:24;;;;;;;12.60;5.23;;;12.30;91.40;;;;;;5057032;28;20687;-60
2022/05/28 05:43:50;;;;;;;13.40;5.43;;;12.30;90.40;;;;;;5049665;28;20449;-60
2022/05/28 05:46:16;;;;;;;14.67;5.30;;;12.40;89.00;;;;;;5048520;28;20465;-59
2022/05/28 05:48:42;;;;;;;9.37;4.83;;;12.40;85.70;;;;;;5045385;28;20895;-59
2022/05/28 05:51:11;;;;;;;11.40;5.37;;;12.50;85.00;;;;;;5050644;28;20174;-60
2022/05/28 05:53:37;;;;;;;9.40;4.60;;;12.60;85.50;;;;;;5058628;28;20429;-59
2022/05/28 05:56:03;;;;;;;8.43;4.47;;;12.70;84.90;;;;;;5051763;28;20438;-59
2022/05/28 05:58:29;;;;;;;9.80;4.87;;;12.70;83.20;;;;;;5061545;28;20261;-60
2022/05/28 06:00:55;;;;;;;10.13;4.67;;;12.80;81.90;;;;;;5058774;28;20593;-58
2022/05/28 06:03:21;;;;;;;10.53;4.80;;;12.90;80.70;;;;;;5048707;28;20202;-60
2022/05/28 06:05:47;;;;;;;12.40;5.03;;;13.00;79.30;;;;;;5044330;28;20182;-60
2022/05/28 06:08:15;;;;;;;14.80;5.17;;;13.00;79.20;;;;;;5044224;28;20217;-60
2022/05/28 06:10:43;;;;;;;10.53;4.73;;;13.10;77.60;;;;;;5047135;28;20495;-60
2022/05/28 06:13:08;;;;;;;11.10;5.40;;;13.10;75.40;;;;;;5050689;28;20440;-60
2022/05/28 06:15:34;;;;;;;11.90;5.17;;;13.20;74.80;;;;;;5053084;28;20545;-60
2022/05/28 06:18:00;;;;;;;9.97;4.90;;;13.20;74.80;;;;;;5056817;28;20182;-60
2022/05/28 06:20:25;;;;;;;9.90;3.80;;;13.30;74.90;;;;;;5048888;28;20178;-60
2022/05/28 06:22:51;;;;;;;9.77;5.10;;;13.40;76.00;;;;;;5035571;28;20234;-59
2022/05/28 06:25:17;;;;;;;11.37;5.20;;;13.50;74.70;;;;;;5055171;28;20180;-59
2022/05/28 06:27:46;;;;;;;8.00;5.10;;;13.60;73.70;;;;;;5053716;28;20198;-60
2022/05/28 06:30:12;;;;;;;11.10;5.37;;;13.60;69.80;;;;;;5040491;28;20167;-59
2022/05/28 06:32:37;;;;;;;12.60;4.70;;;13.70;68.90;;;;;;5050200;28;20934;-60
2022/05/28 06:35:03;;;;;;;10.00;5.10;;;13.70;69.60;;;;;;5048919;28;20433;-60
2022/05/28 06:37:29;;;;;;;23.13;5.63;;;13.80;69.60;;;;;;5048050;28;20203;-60
2022/05/28 06:39:55;;;;;;;8.50;5.00;;;13.90;68.00;;;;;;5055214;28;20759;-60
2022/05/28 06:42:20;;;;;;;8.87;4.37;;;14.00;66.80;;;;;;5053334;28;20700;-60
2022/05/28 06:44:46;;;;;;;19.40;5.40;;;14.10;66.80;;;;;;5039782;28;20179;-60
2022/05/28 06:47:11;;;;;;;11.70;5.43;;;14.20;66.60;;;;;;5047130;28;20703;-60
2022/05/28 06:49:37;;;;;;;11.90;5.27;;;14.30;65.80;;;;;;5043446;28;20191;-60
2022/05/28 06:52:03;;;;;;;9.63;5.07;;;14.40;64.70;;;;;;5047219;28;20199;-60
2022/05/28 06:54:29;;;;;;;6.10;4.63;;;14.50;64.30;;;;;;5057342;28;20170;-60
2022/05/28 06:56:55;;;;;;;11.40;4.83;;;14.60;63.80;;;;;;5058876;28;20448;-61
2022/05/28 06:59:20;;;;;;;9.00;4.37;;;14.70;63.80;;;;;;5039430;28;20541;-60
2022/05/28 07:01:46;;;;;;;7.60;4.20;;;14.80;63.40;;;;;;5052900;28;20538;-60
2022/05/28 07:04:11;;;;;;;8.90;4.13;;;14.90;61.60;;;;;;5044362;28;20179;-61
2022/05/28 07:06:37;;;;;;;6.60;4.07;;;15.00;61.00;;;;;;5040728;28;20298;-60
2022/05/28 07:09:06;;;;;;;15.50;4.47;;;15.10;60.70;;;;;;5035932;28;20260;-61
2022/05/28 07:11:33;;;;;;;9.20;3.97;;;15.10;60.60;;;;;;5049906;28;20690;-61
2022/05/28 07:13:58;;;;;;;12.13;4.10;;;15.20;60.30;;;;;;5061060;28;20816;-60
2022/05/28 07:16:24;;;;;;;8.23;4.57;;;15.20;60.10;;;;;;5046004;28;20456;-61
2022/05/28 07:18:50;;;;;;;5.50;4.00;;;15.30;60.10;;;;;;5041413;28;20182;-61
2022/05/28 07:21:15;;;;;;;12.30;4.90;;;15.40;59.60;;;;;;5042317;28;20187;-61
2022/05/28 07:23:41;;;;;;;10.77;4.30;;;15.50;58.80;;;;;;5044886;28;20191;-61
2022/05/28 07:26:15;;;;;;;11.90;4.77;;;15.50;57.80;;;;;;5059151;28;20182;-61
2022/05/28 07:28:42;;;;;;;8.80;3.83;;;15.50;57.70;;;;;;5048983;28;20546;-61
2022/05/28 07:31:10;;;;;;;9.47;4.53;;;15.60;57.20;;;;;;5050818;28;20422;-61
2022/05/28 07:33:41;;;;;;;8.10;4.13;;;15.60;56.50;;;;;;5043280;28;20437;-61
2022/05/28 07:36:09;;;;;;;7.63;3.93;;;15.70;57.10;;;;;;5054958;28;20425;-60
2022/05/28 07:38:37;;;;;;;9.80;4.40;;;15.70;57.30;;;;;;5056142;28;20422;-60
2022/05/28 07:41:04;;;;;;;9.73;4.40;;;15.80;57.50;;;;;;5050356;28;20457;-61
2022/05/28 07:43:31;;;;;;;9.60;4.40;;;15.90;56.30;;;;;;5041678;28;20449;-60
2022/05/28 07:45:56;;;;;;;10.40;4.50;;;15.80;54.70;;;;;;5036271;28;20524;-61
2022/05/28 07:48:22;;;;;;;10.43;4.37;;;15.70;55.10;;;;;;5040719;28;20453;-61
2022/05/28 07:50:48;;;;;;;12.43;4.87;;;15.70;55.60;;;;;;5040587;28;20261;-58
2022/05/28 07:53:14;;;;;;;7.00;4.30;;;15.70;56.00;;;;;;5037619;28;20652;-60
2022/05/28 07:55:40;;;;;;;7.50;4.03;;;15.70;55.90;;;;;;5034597;28;20270;-60
2022/05/28 07:58:08;;;;;;;11.93;4.23;;;15.70;55.30;;;;;;5039050;28;20233;-60
2022/05/28 08:00:41;;;;;;;9.90;4.23;;;15.80;55.20;;;;;;5041508;28;20512;-62
2022/05/28 08:03:08;;;;;;;4.60;3.60;;;15.80;54.80;;;;;;5036638;28;20806;-61
2022/05/28 08:05:34;;;;;;;8.63;4.27;;;15.90;54.20;;;;;;5035329;28;20425;-62
2022/05/28 08:08:00;;;;;;;8.87;3.70;;;16.00;54.60;;;;;;5040896;28;20815;-64
2022/05/28 08:10:26;;;;;;;9.50;4.00;;;16.10;54.10;;;;;;5041472;28;20425;-62
2022/05/28 08:12:51;;;;;;;12.40;4.60;;;16.20;53.20;;;;;;5037448;28;20596;-62
2022/05/28 08:15:17;;;;;;;9.77;4.10;;;16.20;53.50;;;;;;5032956;28;20258;-62
2022/05/28 08:17:43;;;;;;;8.70;4.20;;;16.20;53.10;;;;;;5039353;28;20186;-61
2022/05/28 08:20:10;;;;;;;10.17;4.10;;;16.20;52.80;;;;;;5033115;28;20565;-62
2022/05/28 08:25:21;;;;;;;8.93;3.90;;;16.20;52.60;;;;;;5039343;28;20523;-62
2022/05/28 08:27:47;;;;;;;7.57;3.60;;;16.30;51.90;;;;;;5037692;28;20952;-63
2022/05/28 08:30:13;;;;;;;7.17;3.40;;;16.20;49.40;;;;;;5037032;28;20431;-62
2022/05/28 08:32:39;;;;;;;12.43;4.33;;;16.20;50.50;;;;;;5045622;28;20695;-63
2022/05/28 08:35:05;;;;;;;4.83;2.80;;;16.30;51.50;;;;;;5038989;28;20414;-63
2022/05/28 08:37:30;;;;;;;6.90;3.70;;;16.30;50.60;;;;;;5035079;28;20217;-63
2022/05/28 08:39:56;;;;;;;8.73;3.60;;;16.40;50.50;;;;;;5039971;28;20429;-61
2022/05/28 08:42:25;;;;;;;10.00;3.23;;;16.50;50.40;;;;;;5031120;28;20199;-60
2022/05/28 08:44:52;;;;;;;6.37;2.90;;;16.50;49.70;;;;;;5037791;28;20209;-62
2022/05/28 08:47:19;;;;;;;8.40;3.30;;;16.40;49.80;;;;;;5033261;28;20465;-63
2022/05/28 08:49:45;;;;;;;9.73;3.00;;;16.50;50.00;;;;;;5034764;28;20437;-63
2022/05/28 08:52:18;;;;;;;6.70;3.10;;;16.50;49.50;;;;;;5027732;28;20460;-62
2022/05/28 08:54:58;;;;;;;10.50;3.20;;;16.50;49.50;;;;;;5028842;28;20438;-57
2022/05/28 08:57:54;;;;;;;10.60;3.37;;;16.50;50.20;;;;;;5039785;28;20499;-56
2022/05/28 09:00:24;;;;;;;4.80;2.63;;;16.70;51.00;;;;;;5038248;28;20434;-55
2022/05/28 09:02:54;;;;;;;5.67;3.00;;;16.80;50.90;;;;;;5028856;28;20454;-56
2022/05/28 09:05:45;;;;;;;7.03;2.70;;;17.00;50.10;;;;;;5039017;28;20792;-56
2022/05/28 09:08:12;;;;;;;7.50;3.70;;;17.00;49.00;;;;;;5033106;28;20465;-56
2022/05/28 09:10:45;;;;;;;3.60;2.57;;;17.10;48.20;;;;;;5041294;28;20445;-63
2022/05/28 09:13:35;;;;;;;4.90;2.93;;;17.20;47.90;;;;;;5037137;28;20451;-62
2022/05/28 09:16:02;;;;;;;9.23;3.40;;;17.30;48.50;;;;;;5032770;28;20425;-62
2022/05/28 09:18:36;;;;;;;9.90;3.63;;;17.40;48.20;;;;;;5042599;28;20439;-61
2022/05/28 09:21:03;;;;;;;5.60;3.17;;;17.40;48.00;;;;;;5037585;28;20476;-60
2022/05/28 09:23:39;;;;;;;4.73;2.50;;;17.50;48.10;;;;;;5038855;28;20456;-60
2022/05/28 09:26:06;;;;;;;6.93;2.67;;;17.60;48.10;;;;;;5051532;28;20434;-60
2022/05/28 09:28:47;;;;;;;3.33;2.43;;;17.70;47.50;;;;;;5052954;28;20521;-61
2022/05/28 09:31:31;;;;;;;6.80;2.20;;;17.80;47.10;;;;;;5050372;28;20422;-61
2022/05/28 09:34:14;;;;;;;5.37;2.57;;;17.90;46.80;;;;;;5046990;28;20449;-61
2022/05/28 09:36:56;;;;;;;6.80;2.73;;;18.10;45.90;;;;;;5046251;28;20517;-61
2022/05/28 09:39:22;;;;;;;5.50;2.40;;;18.10;46.20;;;;;;5054968;28;20420;-60
2022/05/28 09:42:17;;;;;;;3.60;2.50;;;18.20;46.30;;;;;;5042890;28;20478;-60
2022/05/28 09:45:01;;;;;;;4.73;2.67;;;18.30;45.80;;;;;;5032626;28;20203;-61
2022/05/28 09:47:27;;;;;;;6.60;2.80;;;18.20;44.00;;;;;;5053074;28;20514;-59
2022/05/28 09:49:55;;;;;;;7.60;3.23;;;18.00;43.80;;;;;;5045875;28;20438;-60
2022/05/28 09:52:23;;;;;;;4.73;2.57;;;17.80;44.70;;;;;;5047194;28;20227;-60
2022/05/28 09:54:48;;;;;;;8.93;2.70;;;17.70;43.00;;;;;;5044266;28;20425;-59
2022/05/28 09:57:27;;;;;;;3.73;2.73;;;17.50;44.00;;;;;;5049516;28;21165;-60
2022/05/28 10:00:10;;;;;;;5.47;2.77;;;17.50;45.00;;;;;;5055102;28;20274;-60
2022/05/28 10:04:28;;;;;;;5.90;2.10;;;17.70;45.50;;;;;;5046841;28;20484;-60
2022/05/28 10:05:31;;;;;;;5.43;2.40;;;17.80;45.10;;;;;;5059705;28;20434;-60
2022/05/28 10:08:11;;;;;;;9.30;3.07;;;17.80;42.80;;;;;;5047517;28;20469;-60
2022/05/28 10:10:39;;;;;;;5.83;2.90;;;17.70;44.30;;;;;;5047485;28;20425;-60
2022/05/28 10:13:14;;;;;;;7.30;2.10;;;17.70;44.90;;;;;;5040161;28;20454;-60
2022/05/28 10:15:46;;;;;;;4.53;2.77;;;17.90;45.80;;;;;;5035666;28;20534;-60
2022/05/28 10:18:17;;;;;;;6.40;2.37;;;18.00;44.80;;;;;;5042851;28;20425;-61
2022/05/28 10:20:43;;;;;;;7.30;2.27;;;18.20;44.80;;;;;;5040773;28;20524;-60
2022/05/28 10:23:17;;;;;;;5.47;2.00;;;18.40;44.40;;;;;;5041247;28;20453;-60
2022/05/28 10:25:50;;;;;;;3.33;1.97;;;18.60;43.20;;;;;;5040377;28;20528;-61
2022/05/28 10:28:47;;;;;;;3.40;1.93;;;18.70;42.70;;;;;;5041455;28;20460;-59
2022/05/28 10:31:22;;;;;;;4.30;2.10;;;18.70;41.60;;;;;;5030755;28;20937;-59
2022/05/28 10:33:48;;;;;;;3.57;2.20;;;18.70;41.70;;;;;;5043174;28;20518;-60
2022/05/28 10:36:19;;;;;;;4.57;2.20;;;18.60;40.10;;;;;;5035995;28;20918;-60
2022/05/28 10:38:46;;;;;;;7.90;2.40;;;18.60;40.70;;;;;;5039463;28;20183;-60
2022/05/28 10:41:19;;;;;;;4.97;1.93;;;18.80;42.10;;;;;;5038183;28;21307;-60
2022/05/28 10:43:44;;;;;;;4.03;2.17;;;18.90;42.40;;;;;;5038977;28;20551;-60
2022/05/28 10:46:11;;;;;;;2.93;1.77;;;19.00;40.40;;;;;;5039598;28;20475;-60
2022/05/28 10:48:51;;;;;;;6.70;2.10;;;19.10;39.90;;;;;;5048990;28;20226;-61
2022/05/28 10:51:49;;;;;;;2.70;1.70;;;19.00;38.00;;;;;;5041832;28;20422;-60
2022/05/28 10:54:29;;;;;;;3.17;2.07;;;19.10;39.60;;;;;;5039010;28;20918;-61
2022/05/28 10:57:16;;;;;;;5.43;1.80;;;19.20;40.10;;;;;;5044657;28;20527;-60
2022/05/28 11:00:03;;;;;;;4.67;1.80;;;19.30;39.90;;;;;;5047764;28;20437;-61
2022/05/28 11:02:47;;;;;;;4.13;1.63;;;19.40;37.60;;;;;;5047610;28;20509;-60
2022/05/28 11:05:39;;;;;;;8.00;1.60;;;19.40;36.10;;;;;;5034229;28;20488;-60
2022/05/28 11:08:30;;;;;;;2.73;1.70;;;19.40;37.90;;;;;;5046510;28;20453;-59
2022/05/28 11:11:14;;;;;;;3.17;1.60;;;19.50;37.70;;;;;;5047216;28;20448;-61
2022/05/28 11:14:02;;;;;;;3.90;1.40;;;19.50;37.70;;;;;;5056480;28;20839;-60
2022/05/28 11:16:55;;;;;;;3.73;1.67;;;19.60;35.50;;;;;;5065171;28;20404;-60
2022/05/28 11:19:51;;;;;;;3.13;1.43;;;19.50;36.30;;;;;;5050513;28;20436;-60
2022/05/28 11:22:41;;;;;;;5.77;1.47;;;19.80;37.40;;;;;;5042713;28;20446;-61
2022/05/28 11:25:25;;;;;;;2.97;1.67;;;20.10;38.10;;;;;;5044550;28;20487;-60
2022/05/28 11:28:06;;;;;;;3.33;1.60;;;20.40;37.20;;;;;;5043438;28;20465;-61
2022/05/28 11:30:38;;;;;;;3.70;1.43;;;20.60;36.40;;;;;;5057479;28;20436;-60
2022/05/28 11:33:17;;;;;;;4.77;2.13;;;20.80;35.70;;;;;;5063701;28;20478;-61
2022/05/28 11:35:58;;;;;;;3.83;1.97;;;21.00;35.00;;;;;;5043129;28;20444;-60
2022/05/28 11:38:33;;;;;;;2.50;1.63;;;20.90;32.00;;;;;;5048282;28;20510;-60
2022/05/28 11:41:22;;;;;;;3.23;1.40;;;20.80;33.50;;;;;;5042972;28;20436;-62
2022/05/28 11:44:02;;;;;;;2.37;1.60;;;20.90;34.50;;;;;;5048633;28;20937;-60
2022/05/28 11:46:39;;;;;;;2.90;1.13;;;20.90;32.50;;;;;;5052177;28;20520;-61
2022/05/28 11:52:26;;;;;;;3.20;2.00;;;20.80;30.00;;;;;;5048104;28;20440;-61
2022/05/28 11:55:03;;;;;;;2.40;1.27;;;20.70;29.90;;;;;;5042954;28;20443;-59
2022/05/28 11:57:38;;;;;;;2.70;1.87;;;20.80;32.00;;;;;;5052735;28;20447;-61
2022/05/28 12:00:07;;;;;;;1.93;1.20;;;20.80;32.50;;;;;;5057231;28;21083;-61
2022/05/28 12:02:39;;;;;;;1.37;1.20;;;21.00;30.00;;;;;;5046565;28;20472;-61
2022/05/28 12:05:21;;;;;;;4.70;1.50;;;21.00;30.30;;;;;;5042670;28;21173;-61
2022/05/28 12:07:54;;;;;;;2.57;1.37;;;21.10;31.40;;;;;;5059184;28;21174;-62
2022/05/28 12:10:50;;;;;;;2.20;1.17;;;21.20;29.90;;;;;;5037106;28;20426;-61
2022/05/28 12:13:50;;;;;;;2.30;1.20;;;21.10;31.40;;;;;;5036619;28;20521;-62
2022/05/28 12:16:22;;;;;;;2.50;1.20;;;21.10;33.00;;;;;;5030507;28;20513;-61
2022/05/28 12:19:01;;;;;;;5.07;1.10;;;21.00;32.40;;;;;;5041075;28;20528;-60
2022/05/28 12:21:36;;;;;;;10.20;1.50;;;20.80;30.90;;;;;;5056276;28;20434;-60
2022/05/28 12:24:33;;;;;;;2.77;1.07;;;20.80;31.80;;;;;;5055003;28;20791;-60
2022/05/28 12:29:51;;;;;;;4.23;1.40;;;20.60;32.20;;;;;;5051842;28;20434;-60
2022/05/28 12:32:15;;;;;;;2.50;1.00;;;20.40;33.10;;;;;;5049563;28;20476;-61
2022/05/28 12:35:00;;;;;;;6.40;1.53;;;20.30;33.70;;;;;;5055629;28;20561;-60
2022/05/28 12:37:42;;;;;;;3.27;1.30;;;20.10;33.50;;;;;;5052732;28;20568;-61
2022/05/28 12:40:29;;;;;;;2.10;1.30;;;19.90;32.00;;;;;;5050014;28;20417;-60
2022/05/28 12:42:59;;;;;;;2.20;1.50;;;19.70;32.20;;;;;;5038150;28;20532;-60
2022/05/28 12:45:24;;;;;;;2.50;1.17;;;19.60;32.90;;;;;;5050495;28;20445;-62
2022/05/28 12:47:51;;;;;;;2.33;1.33;;;19.50;32.90;;;;;;5052836;28;20538;-61
2022/05/28 12:50:31;;;;;;;2.53;1.33;;;19.50;33.00;;;;;;5059075;28;20167;-60
2022/05/28 12:53:25;;;;;;;4.20;1.20;;;19.40;32.80;;;;;;5049124;28;20479;-60
2022/05/28 12:56:03;;;;;;;2.20;1.13;;;19.40;35.00;;;;;;5042503;28;20482;-60
2022/05/28 12:58:31;;;;;;;3.10;1.20;;;19.50;35.20;;;;;;5037974;28;20441;-60
2022/05/28 13:01:03;;;;;;;1.73;1.10;;;19.50;34.60;;;;;;5045861;28;20429;-60
2022/05/28 13:03:41;;;;;;;4.53;0.87;;;19.40;33.80;;;;;;5048864;28;20506;-60
2022/05/28 13:06:10;;;;;;;3.47;1.20;;;19.30;32.80;;;;;;5062187;28;20468;-60
2022/05/28 13:08:58;;;;;;;2.23;1.10;;;19.40;33.00;;;;;;5046343;28;20452;-60
2022/05/28 13:11:27;;;;;;;2.10;1.17;;;19.60;33.30;;;;;;5039500;28;20431;-60
2022/05/28 13:14:25;;;;;;;1.13;1.00;;;19.90;32.50;;;;;;5043844;28;20474;-61